»·PEaware :: FFT756 KPHX-KDEN

FFT756 :: KPHX-KDEN

FLIGHT INFORMATION

Flight Status: Arrived
Operator:
Frontier Airlines
More flights by this operator :: More flights under this callsign
Pilot: John C. (18682)
Aircraft: AIRBUS A320
(A320)
More flights by this aircraft type
Origin: KPHX Phoenix Sky Harbor Intl
United States
Destination: KDEN Denver Intl
United States
More flights between these airports :: More routes between these airports
Route: ZIDOG1 ZIDOG MRBIL YOTES YOOPR OURAY LDORA2
File this flight plan on PilotEdge
Remarks:
Altitude:
(Current/Filed)
35,000ft
Speed:
(Current/Filed)
437kts
Departed: 24-Apr-18 03:16 PM
Arrived: 24-Apr-18 04:42 PM
Distance/Time
Traveled:
522nm/1:26
Distance/Time
To Go:
Arrived

Flight Plot

Page will automatically refresh every two minutes.

Flight plan parsing failed; only flown route is shown


Map Options




Map Legend


Flown Route
Filed Route
Departure Airport
Arrival Airport
Navaid (VOR, NDB)
Fix

Horizontal Profiles

Position Reports

Time Latitude Longitude Heading Altitude Ground
Speed
24-Apr-18 14:46 33.437346 -112.009389 99 1128ft 0kts
24-Apr-18 14:47 33.437346 -112.009389 99 1128ft 0kts
24-Apr-18 14:48 33.437346 -112.009389 99 1128ft 0kts
24-Apr-18 14:49 33.437346 -112.009389 99 1128ft 0kts
24-Apr-18 14:50 33.437346 -112.009389 99 1128ft 0kts
24-Apr-18 14:51 33.437346 -112.009389 99 1128ft 0kts
24-Apr-18 14:52 33.437346 -112.009389 99 1128ft 0kts
24-Apr-18 14:53 33.437346 -112.009389 99 1128ft 0kts
24-Apr-18 14:54 33.437346 -112.009389 99 1128ft 0kts
24-Apr-18 14:55 33.437346 -112.009389 99 1128ft 0kts
24-Apr-18 14:56 33.437346 -112.009389 99 1128ft 0kts
24-Apr-18 14:57 33.437346 -112.009389 99 1128ft 0kts
24-Apr-18 14:58 33.437346 -112.009389 99 1128ft 0kts
24-Apr-18 14:59 33.437346 -112.009389 99 1128ft 0kts
24-Apr-18 15:00 33.437346 -112.009389 99 1128ft 0kts
24-Apr-18 15:01 33.437346 -112.009389 99 1128ft 0kts
24-Apr-18 15:02 33.437346 -112.009389 99 1128ft 0kts
24-Apr-18 15:03 33.437346 -112.009390 99 1128ft 0kts
24-Apr-18 15:04 33.437413 -112.009978 72 1128ft 2kts
24-Apr-18 15:05 33.437111 -112.010218 359 1128ft 0kts
24-Apr-18 15:06 33.437111 -112.010218 359 1128ft 0kts
24-Apr-18 15:07 33.437312 -112.010216 0 1128ft 6kts
24-Apr-18 15:08 33.438304 -112.010210 0 1128ft 0kts
24-Apr-18 15:09 33.438646 -112.010251 343 1128ft 9kts
24-Apr-18 15:10 33.439743 -112.008946 90 1130ft 16kts
24-Apr-18 15:11 33.439733 -112.002574 90 1131ft 20kts
24-Apr-18 15:12 33.439731 -111.995980 90 1137ft 19kts
24-Apr-18 15:13 33.439866 -111.990510 29 1138ft 0kts
24-Apr-18 15:14 33.439990 -111.990475 354 1138ft 4kts
24-Apr-18 15:15 33.440818 -112.004478 268 1132ft 154kts
24-Apr-18 15:16 33.441576 -112.065171 271 4162ft 205kts
24-Apr-18 15:17 33.443680 -112.144381 272 6733ft 259kts
24-Apr-18 15:18 33.490188 -112.196152 359 9818ft 273kts
24-Apr-18 15:19 33.568373 -112.194887 0 12509ft 308kts
24-Apr-18 15:20 33.661499 -112.192267 0 14410ft 354kts
24-Apr-18 15:21 33.761179 -112.188544 0 16988ft 366kts
24-Apr-18 15:22 33.864277 -112.183619 0 19326ft 378kts
24-Apr-18 15:23 33.970573 -112.177583 0 21442ft 390kts
24-Apr-18 15:24 34.059005 -112.104862 52 23242ft 419kts
24-Apr-18 15:25 34.126045 -111.988961 52 24924ft 430kts
24-Apr-18 15:26 34.195438 -111.869280 52 26485ft 441kts
24-Apr-18 15:27 34.266370 -111.746525 52 27906ft 451kts
24-Apr-18 15:28 34.338647 -111.620939 52 29189ft 461kts
24-Apr-18 15:29 34.412327 -111.492505 52 30355ft 471kts
24-Apr-18 15:30 34.487465 -111.361046 52 31528ft 477kts
24-Apr-18 15:31 34.562218 -111.229791 53 32874ft 475kts
24-Apr-18 15:32 34.644857 -111.107912 30 34040ft 465kts
24-Apr-18 15:33 34.756681 -111.032948 24 35154ft 457kts
24-Apr-18 15:34 34.867514 -110.960195 24 35187ft 453kts
24-Apr-18 15:35 34.978085 -110.887347 24 35187ft 453kts
24-Apr-18 15:36 35.088266 -110.814541 24 35181ft 452kts
24-Apr-18 15:37 35.198185 -110.741683 24 35180ft 452kts
24-Apr-18 15:38 35.308277 -110.668488 24 35185ft 453kts
24-Apr-18 15:39 35.419015 -110.594631 24 35189ft 453kts
24-Apr-18 15:40 35.529151 -110.520945 24 35192ft 453kts
24-Apr-18 15:41 35.634389 -110.450049 27 35192ft 454kts
24-Apr-18 15:42 35.724257 -110.340212 46 35199ft 463kts
24-Apr-18 15:43 35.808749 -110.220778 46 35181ft 462kts
24-Apr-18 15:44 35.892679 -110.101727 46 35194ft 462kts
24-Apr-18 15:45 35.976737 -109.982060 46 35251ft 462kts
24-Apr-18 15:46 36.060293 -109.862684 46 35270ft 462kts
24-Apr-18 15:47 36.143627 -109.743203 46 35272ft 462kts
24-Apr-18 15:48 36.227313 -109.622793 46 35273ft 462kts
24-Apr-18 15:49 36.310692 -109.502379 46 35272ft 463kts
24-Apr-18 15:50 36.394228 -109.381311 46 35272ft 463kts
24-Apr-18 15:51 36.477088 -109.260788 46 35264ft 462kts
24-Apr-18 15:52 36.560365 -109.139229 46 35222ft 462kts
24-Apr-18 15:53 36.643720 -109.017114 45 35177ft 464kts
24-Apr-18 15:54 36.723649 -108.899593 45 35200ft 466kts
24-Apr-18 15:55 36.810621 -108.771239 45 35213ft 467kts
24-Apr-18 15:56 36.894026 -108.647685 45 35223ft 467kts
24-Apr-18 15:57 36.977397 -108.523718 45 35204ft 467kts
24-Apr-18 15:58 37.060774 -108.399286 43 35155ft 471kts
24-Apr-18 15:59 37.142154 -108.277382 43 35147ft 479kts
24-Apr-18 16:00 37.225735 -108.151700 43 35231ft 484kts
24-Apr-18 16:01 37.311649 -108.022008 43 35279ft 487kts
24-Apr-18 16:02 37.398135 -107.890941 43 35278ft 487kts
24-Apr-18 16:03 37.484239 -107.759935 43 35305ft 486kts
24-Apr-18 16:04 37.569832 -107.629186 43 35298ft 485kts
24-Apr-18 16:05 37.654442 -107.499423 43 35264ft 484kts
24-Apr-18 16:06 37.739896 -107.367844 43 35292ft 484kts
24-Apr-18 16:07 37.823408 -107.238742 43 35284ft 482kts
24-Apr-18 16:08 37.907958 -107.107514 43 35298ft 483kts
24-Apr-18 16:09 37.991876 -106.976746 43 35279ft 484kts
24-Apr-18 16:10 38.077084 -106.843429 43 35274ft 487kts
24-Apr-18 16:11 38.161440 -106.710896 43 35295ft 491kts
24-Apr-18 16:12 38.248281 -106.578164 36 35328ft 487kts
24-Apr-18 16:13 38.344641 -106.458960 36 35385ft 486kts
24-Apr-18 16:14 38.440155 -106.340338 36 35433ft 485kts
24-Apr-18 16:15 38.535016 -106.222062 36 35286ft 480kts
24-Apr-18 16:16 38.627569 -106.106180 36 33346ft 471kts
24-Apr-18 16:17 38.719455 -105.990723 37 31338ft 462kts
24-Apr-18 16:18 38.809114 -105.877642 38 29336ft 452kts
24-Apr-18 16:19 38.896871 -105.766402 38 27289ft 443kts
24-Apr-18 16:20 38.980076 -105.660313 37 25326ft 400kts
24-Apr-18 16:21 39.052681 -105.567515 36 23588ft 345kts
24-Apr-18 16:22 39.118245 -105.483604 36 22031ft 335kts
24-Apr-18 16:23 39.182494 -105.401265 37 20487ft 326kts
24-Apr-18 16:24 39.245023 -105.321027 40 18935ft 318kts
24-Apr-18 16:25 39.274666 -105.213968 71 17451ft 323kts
24-Apr-18 16:26 39.295499 -105.103166 72 15956ft 314kts
24-Apr-18 16:27 39.315627 -104.995689 72 14518ft 304kts
24-Apr-18 16:28 39.333906 -104.897392 71 14103ft 263kts
24-Apr-18 16:29 39.355197 -104.808168 67 13239ft 259kts
24-Apr-18 16:30 39.379651 -104.723294 64 12743ft 252kts
24-Apr-18 16:31 39.427219 -104.666559 11 12361ft 229kts
24-Apr-18 16:32 39.484893 -104.664497 359 11999ft 199kts
24-Apr-18 16:33 39.537420 -104.664220 358 11119ft 182kts
24-Apr-18 16:34 39.587550 -104.663574 359 10057ft 180kts
24-Apr-18 16:35 39.637127 -104.662847 359 9182ft 178kts
24-Apr-18 16:36 39.684518 -104.662301 0 8220ft 164kts
24-Apr-18 16:37 39.726510 -104.661792 0 7460ft 135kts
24-Apr-18 16:38 39.763354 -104.661299 0 6726ft 133kts
24-Apr-18 16:39 39.800505 -104.660809 0 6015ft 134kts
24-Apr-18 16:40 39.836871 -104.660282 359 5443ft 103kts
24-Apr-18 16:41 39.848054 -104.660756 342 5443ft 19kts
24-Apr-18 16:42 39.852283 -104.662272 0 5443ft 14kts
24-Apr-18 16:43 39.852725 -104.667230 270 5443ft 16kts
24-Apr-18 16:44 39.852813 -104.672813 263 5443ft 12kts
24-Apr-18 16:45 39.853213 -104.674761 358 5443ft 1kts
24-Apr-18 16:46 39.853388 -104.674762 359 5443ft 0kts
24-Apr-18 16:47 39.853388 -104.674762 359 5443ft 0kts
24-Apr-18 16:48 39.853388 -104.674762 359 5443ft 0kts
24-Apr-18 16:49 39.853388 -104.674762 359 5443ft 0kts
24-Apr-18 16:50 39.853388 -104.674762 359 5443ft 0kts
24-Apr-18 16:51 39.853388 -104.674762 359 5443ft 0kts
24-Apr-18 16:52 39.853388 -104.674762 359 5443ft 0kts
24-Apr-18 16:53 39.853388 -104.674762 359 5443ft 0kts
24-Apr-18 16:54 39.853388 -104.674762 359 5443ft 0kts
24-Apr-18 16:55 39.853388 -104.674762 359 5443ft 0kts
24-Apr-18 16:56 39.853388 -104.674762 359 5443ft 0kts

Navigation Log

Ident Type
Flight plan parsing failed, navigation log unavailable